This is the latest recevied weather packets stored in our database for station/object EA5JPW-10. If no packets are shown the sender has not sent any weather packets the latest 10 day(s).
| Time | Temp. | Humidity | Pressure | Rain* | Wind** | Luminosity | Snow |
|---|---|---|---|---|---|---|---|
| 1777576747 | 21.11° C | 43% | 994.3 hPa | - | - | - | - |
| 1777575847 | 21.11° C | 43% | 994.3 hPa | - | - | - | - |
| 1777574947 | 21.67° C | 43% | 994.2 hPa | - | - | - | - |
| 1777574046 | 22.22° C | 43% | 993.9 hPa | - | - | - | - |
| 1777573146 | 22.78° C | 43% | 993.7 hPa | - | - | - | - |
| 1777572246 | 23.89° C | 42% | 993.5 hPa | - | - | - | - |
| 1777571346 | 23.89° C | 43% | 993.6 hPa | - | - | - | - |
| 1777570446 | 24.44° C | 41% | 993.2 hPa | - | - | - | - |
| 1777569545 | 28.33° C | 38% | 993 hPa | - | - | - | - |
| 1777568645 | 30° C | 36% | 993.2 hPa | - | - | - | - |
| 1777567745 | 31.11° C | 35% | 993.6 hPa | - | - | - | - |
| 1777566845 | 30.56° C | 38% | 993.2 hPa | - | - | - | - |
| 1777565945 | 30.56° C | 37% | 992.5 hPa | - | - | - | - |
| 1777565045 | 32.78° C | 35% | 993 hPa | - | - | - | - |
| 1777564144 | 32.78° C | 36% | 993.2 hPa | - | - | - | - |
| 1777563244 | 32.78° C | 36% | 993.1 hPa | - | - | - | - |
| 1777562344 | 33.89° C | 35% | 992 hPa | - | - | - | - |
| 1777561444 | 32.78° C | 36% | 993.4 hPa | - | - | - | - |
| 1777560544 | 34.44° C | 35% | 993.2 hPa | - | - | - | - |
| 1777559643 | 32.78° C | 38% | 993.6 hPa | - | - | - | - |
| 1777558743 | 37.22° C | 34% | 993.3 hPa | - | - | - | - |
| 1777557843 | 36.67° C | 35% | 992.3 hPa | - | - | - | - |
| 1777556946 | 39.44° C | 33% | 994.3 hPa | - | - | - | - |
| 1777556045 | 40.56° C | 32% | 995 hPa | - | - | - | - |
| 1777555145 | 38.33° C | 34% | 994.1 hPa | - | - | - | - |
* Rain since midnight (hover to see other rain measurements)
** Current wind speed in m/s (hover to see current wind gust speed)